Tonghe, China
Current Conditions -  °F | °C
As of 4:00 AM on Wednesday 28 Jan 2015 (Local Time) from ZYHB Reporting Station
Smoke Smoke  
Wind Chill: -24°   Ceiling: Unl
Heat Index: -9°   Visibility: 3mi
Dew Point: -15°   Wind: 7mph
Humidity: 77%   Direction: 210°SSW
Pressure: 30.48"   Gusts: NA
Location:  45.97°N, 128.73°E
Report Text: ZYHB 272000Z 21003MPS 5000 FU NSC M23/M26 Q1032 NOSIG
Loading
Personal Weather Stations






























Interactive Weather Map New forecast layout! Learn more

10-Day Weather Forecast

Advertisements
Track Severe Weather on mobile